Aérodrome :
LOGIN :

S'inscrire | Disclaimer

   EN    FR    IT 

 










Légende :    VFR   VFR Marginal   IFR   IFR Intensif   IFR Très Intensif
Visi : 
Plafond : 
>= 8 km
>= 3000ft
5 à 8 km
1000 à 3000 ft
1500m à 5 km
500 à 1000 ft
800 à 1500m
200 à 500 ft
< 800m
< 200 ft
Symboles :   Orages  Brouillard  Fortes neiges  Fortes précipitations  Vent > 20 kt
SIGMETs :   Divers  Orages  Givrage  Turbulence  Onde Orograph.  Cendres Volcan.






- Altitude de l'aérodrome : 69 ft
- Code IATA : AES


ENAL - Ålesund

DERNIER METAR :
  • 011520Z 25019KT 9999 FEW027 SCT044 BKN061 06/02 Q0997

METARs EXPIRÉS :
  • 011450Z 25017KT 9999 FEW019 SCT027TCU BKN070 06/04 Q0997
  • 011420Z 24021KT 9999 FEW020 SCT027 BKN034 06/04 Q0997
  • 011350Z 24019KT 9999 FEW024 SCT035 BKN057 06/03 Q0997
  • 011320Z 24019KT 9999 FEW015 BKN045 06/04 Q0997
  • 011250Z 26015KT 9999 FEW010 SCT025 BKN049 06/03 Q0997
  • 011220Z 26017KT 9000 -SHRA SCT016 BKN023 05/03 Q0997

TAF TAF ENAL
Valide du 01 à 15h jusqu'au 01 à 21h UTC


011400Z 0115/0121 24020KT 9999 -SHRA FEW015TCU BKN030
TEMPO 0115/0121 25025G35KT SHRA BKN014CB



MET'MAP, la Météo Aéronautique d'un coup d'oeil ! - Copyright ORBIFLY Décembre 2007 - Disclaimer

ORBIFLY MET'MAP TEAM :

Programmation & Développement : Alexandra Zaïnal
Sur une idée originale de : Baudouin d'Aumeries
Assistance à la programmation : Marc-Olivier Méhu
Soutien technique & logistique : Manuel Goepfert

Contact : metmap@orbifly.com




SOURCES & CREDITS :

   NOAA